Time;durP1;ratioP1;P1;durP2;ratioP2;P2;SDS_P1;SDS_P2;PMS_P1;PMS_P2;Temp;Humidity;BMP_temperature;BMP_pressure;BME280_temperature;BME280_humidity;BME280_pressure;Samples;Min_cycle;Max_cycle;Signal;HPM_P1;HPM_P2
2022/02/07 00:01:22;;;;;;;20.43;9.75;;;;;;;2.67;75.05;142923.33;1719486;83;21012;-62
2022/02/07 00:03:47;;;;;;;18.15;9.53;;;;;;;2.61;74.98;142909.63;1694156;83;21175;-62
2022/02/07 00:06:13;;;;;;;18.87;9.98;;;;;;;2.56;74.84;142897.17;1670780;84;21060;-62
2022/02/07 00:08:41;;;;;;;18.95;9.05;;;;;;;2.54;75.12;142892.19;1670893;84;21045;-62
2022/02/07 00:11:08;;;;;;;19.52;10.05;;;;;;;2.55;75.08;142894.70;1680307;84;21110;-62
2022/02/07 00:13:35;;;;;;;14.18;8.13;;;;;;;2.56;75.05;142897.17;1694143;84;21646;-61
2022/02/07 00:16:04;;;;;;;14.43;8.83;;;;;;;2.60;74.90;142907.16;1697655;84;21094;-62
2022/02/07 00:18:32;;;;;;;16.50;8.83;;;;;;;2.60;74.82;142907.16;1698213;84;21048;-62
2022/02/07 00:21:01;;;;;;;15.90;8.25;;;;;;;2.58;74.82;142902.17;1683910;85;21161;-64
2022/02/07 00:23:28;;;;;;;16.40;8.48;;;;;;;2.56;74.87;142898.41;1682340;85;21104;-63
2022/02/07 00:25:55;;;;;;;16.17;7.78;;;;;;;2.57;74.86;142899.66;1659269;85;21096;-63
2022/02/07 00:28:23;;;;;;;12.68;7.47;;;;;;;2.51;74.98;142885.95;1677795;84;21115;-63
2022/02/07 00:30:50;;;;;;;12.33;7.78;;;;;;;2.49;75.15;142879.72;1683409;84;22434;-64
2022/02/07 00:33:17;;;;;;;15.00;7.58;;;;;;;2.52;75.19;142888.47;1683419;84;21095;-62
2022/02/07 00:35:44;;;;;;;16.40;8.35;;;;;;;2.53;75.20;142889.72;1670695;84;21160;-62
2022/02/07 00:38:16;;;;;;;15.40;8.30;;;;;;;2.54;75.19;142893.42;1676650;84;21075;-62
2022/02/07 00:40:59;;;;;;;13.28;7.45;;;;;;;2.56;75.19;142897.17;1676649;84;21155;-62
2022/02/07 00:43:39;;;;;;;14.68;8.48;;;;;;;2.58;75.19;142902.17;1699595;84;21379;-61
2022/02/07 00:46:08;;;;;;;13.28;7.17;;;;;;;2.60;75.21;142908.41;1709474;84;21127;-61
2022/02/07 00:48:34;;;;;;;12.30;7.40;;;;;;;2.62;75.05;142912.16;1711338;84;21052;-62
2022/02/07 00:51:01;;;;;;;13.38;6.85;;;;;;;2.66;74.97;142920.86;1711664;84;21040;-62
2022/02/07 00:53:31;;;;;;;13.48;7.60;;;;;;;2.66;74.75;142920.86;1711460;84;21208;-61
2022/02/07 00:55:58;;;;;;;15.40;7.05;;;;;;;2.66;74.68;142920.86;1709471;84;21091;-61
2022/02/07 00:58:25;;;;;;;13.65;7.08;;;;;;;2.68;74.64;142925.84;1710987;84;21115;-62
2022/02/07 01:00:52;;;;;;;11.73;6.03;;;;;;;2.71;74.54;142934.55;1711149;84;21155;-61
2022/02/07 01:03:23;;;;;;;13.78;7.03;;;;;;;2.75;74.31;142944.53;1711573;84;21130;-62
2022/02/07 01:05:51;;;;;;;12.98;6.85;;;;;;;2.74;74.12;142942.02;1709547;84;21099;-62
2022/02/07 01:08:28;;;;;;;17.25;7.95;;;;;;;2.75;73.98;142943.30;1711662;84;21482;-62
2022/02/07 01:11:09;;;;;;;14.63;8.15;;;;;;;2.76;73.85;142947.00;1697180;84;21044;-62
2022/02/07 01:16:42;;;;;;;11.60;6.83;;;;;;;2.80;73.59;142957.00;1709990;84;21599;-62
2022/02/07 01:51:52;;;;;;;13.55;6.83;;;;;;;2.75;73.27;142943.30;1692731;85;21016;-61
2022/02/07 01:54:19;;;;;;;14.93;7.75;;;;;;;2.76;73.26;142945.78;1692314;85;21075;-61
2022/02/07 01:56:40;;;;;;;16.20;7.03;;;;;;;2.77;73.35;142948.25;1693241;84;21558;-61
2022/02/07 01:59:08;;;;;;;15.03;7.55;;;;;;;2.76;73.39;142947.00;1690887;85;21110;-61
2022/02/07 02:01:37;;;;;;;13.35;7.50;;;;;;;2.77;73.42;142949.53;1692991;84;21067;-61
2022/02/07 02:04:06;;;;;;;13.62;6.67;;;;;;;2.75;73.60;142944.53;1680918;85;21051;-61
2022/02/07 02:06:34;;;;;;;12.90;7.42;;;;;;;2.75;73.69;142944.53;1665494;85;21092;-61
2022/02/07 02:09:05;;;;;;;12.15;7.08;;;;;;;2.77;73.70;142949.53;1681083;85;21094;-61
2022/02/07 02:11:36;;;;;;;14.43;7.00;;;;;;;2.80;73.61;142957.00;1691311;84;21048;-62
2022/02/07 02:19:46;;;;;;;12.18;6.53;;;;;;;2.79;73.73;142953.23;1692955;84;21088;-62
2022/02/07 02:22:45;;;;;;;13.32;7.00;;;;;;;2.81;73.70;142958.23;1693589;84;21078;-62
2022/02/07 02:46:32;;;;;;;12.30;7.30;;;;;;;2.61;74.65;142909.63;1639950;85;21048;-62
2022/02/07 02:49:02;;;;;;;14.28;7.00;;;;;;;2.57;74.96;142899.66;1638459;87;21071;-62
2022/02/07 02:51:31;;;;;;;16.23;7.00;;;;;;;2.56;75.01;142898.41;1644641;86;21060;-62
2022/02/07 02:53:58;;;;;;;15.88;6.70;;;;;;;2.55;75.09;142894.70;1640184;86;21035;-62
2022/02/07 02:56:25;;;;;;;15.98;7.45;;;;;;;2.55;75.11;142894.70;1638141;86;21556;-62
2022/02/07 02:58:53;;;;;;;11.68;7.40;;;;;;;2.59;75.09;142904.64;1638180;86;21091;-62
2022/02/07 03:01:24;;;;;;;14.55;7.25;;;;;;;2.61;75.13;142910.88;1638677;86;21107;-62
2022/02/07 03:03:57;;;;;;;11.95;6.87;;;;;;;2.64;75.60;142917.09;1639805;86;21064;-62
2022/02/07 03:06:24;;;;;;;12.33;6.92;;;;;;;2.65;76.24;142919.63;1638152;88;21548;-61
2022/02/07 03:08:51;;;;;;;11.10;6.60;;;;;;;2.64;77.00;142917.09;1638564;86;21044;-62
2022/02/07 03:11:21;;;;;;;16.93;7.17;;;;;;;2.66;78.07;142920.86;1638189;88;21071;-62
2022/02/07 03:13:51;;;;;;;10.68;7.00;;;;;;;2.66;78.77;142922.09;1646746;86;21055;-62
2022/02/07 03:16:37;;;;;;;11.68;7.17;;;;;;;2.64;79.68;142917.09;1664131;85;21530;-62
2022/02/07 03:19:12;;;;;;;13.10;7.97;;;;;;;2.61;80.18;142910.88;1652895;86;21011;-62
2022/02/07 03:21:42;;;;;;;12.95;7.30;;;;;;;2.60;80.33;142907.16;1638275;86;21121;-62
2022/02/07 03:24:09;;;;;;;13.95;6.35;;;;;;;2.62;80.35;142912.16;1640030;86;21096;-62
2022/02/07 03:26:43;;;;;;;12.70;6.47;;;;;;;2.62;80.51;142912.16;1624007;87;21551;-63
2022/02/07 03:29:14;;;;;;;13.88;7.55;;;;;;;2.63;80.69;142914.63;1641321;86;21104;-62
2022/02/07 03:31:43;;;;;;;13.75;7.40;;;;;;;2.59;81.06;142905.87;1614786;87;21136;-62
2022/02/07 03:34:13;;;;;;;12.43;7.17;;;;;;;2.56;81.24;142897.17;1674417;85;21061;-62
2022/02/07 03:36:42;;;;;;;13.10;7.97;;;;;;;2.48;81.63;142877.25;1640961;87;21553;-62
2022/02/07 03:39:10;;;;;;;13.03;7.53;;;;;;;2.43;82.03;142864.80;1684611;85;21085;-62
2022/02/07 03:41:37;;;;;;;13.95;7.62;;;;;;;2.38;82.20;142853.58;1684601;85;21496;-62
2022/02/07 03:44:05;;;;;;;12.80;7.58;;;;;;;2.37;82.28;142852.34;1667433;85;21062;-62
2022/02/07 03:46:33;;;;;;;19.95;8.10;;;;;;;2.37;82.34;142852.34;1668221;85;21074;-61
2022/02/07 03:49:00;;;;;;;11.75;7.47;;;;;;;2.41;82.33;142861.05;1684080;85;21108;-61
2022/02/07 03:51:29;;;;;;;13.93;8.45;;;;;;;2.41;82.33;142859.81;1684510;85;21042;-61
2022/02/07 03:53:57;;;;;;;15.00;9.18;;;;;;;2.39;82.33;142856.05;1684420;85;21136;-61
2022/02/07 03:56:24;;;;;;;14.13;8.75;;;;;;;2.35;82.37;142846.11;1682129;85;21050;-60
2022/02/07 03:58:50;;;;;;;13.38;8.88;;;;;;;2.37;82.25;142852.34;1684714;85;21011;-61
2022/02/07 04:01:22;;;;;;;12.85;8.65;;;;;;;2.39;82.17;142857.33;1684980;85;21042;-61
2022/02/07 04:03:49;;;;;;;16.95;8.93;;;;;;;2.37;82.19;142852.34;1681564;85;21010;-61
2022/02/07 04:06:19;;;;;;;14.40;7.22;;;;;;;2.37;82.16;142852.34;1680918;85;21533;-61
2022/02/07 04:08:50;;;;;;;14.90;8.43;;;;;;;2.38;82.01;142854.81;1644170;86;21036;-61
2022/02/07 04:11:27;;;;;;;15.00;9.00;;;;;;;2.36;81.89;142849.81;1647317;87;21517;-60
2022/02/07 04:13:54;;;;;;;14.80;8.18;;;;;;;2.39;81.64;142857.33;1681414;84;21041;-60
2022/02/07 04:16:21;;;;;;;16.27;8.98;;;;;;;2.42;81.39;142862.28;1698285;84;21056;-62
2022/02/07 04:19:02;;;;;;;17.42;9.13;;;;;;;2.41;81.22;142859.81;1674514;84;21005;-62
2022/02/07 04:21:25;;;;;;;14.90;8.60;;;;;;;2.38;81.08;142854.81;1690435;85;21215;-61
2022/02/07 04:23:54;;;;;;;17.92;8.85;;;;;;;2.31;80.46;142837.36;1699443;84;21061;-60
2022/02/07 04:26:22;;;;;;;14.45;8.18;;;;;;;2.28;80.23;142829.91;1702809;84;21099;-60
2022/02/07 04:28:50;;;;;;;16.35;8.75;;;;;;;2.30;79.81;142834.89;1707357;84;21053;-60
2022/02/07 04:31:17;;;;;;;16.05;9.73;;;;;;;2.34;79.35;142844.87;1705587;84;21052;-59
2022/02/07 04:33:45;;;;;;;16.82;8.63;;;;;;;2.38;78.92;142854.81;1705763;84;21060;-60
2022/02/07 04:36:14;;;;;;;19.62;10.05;;;;;;;2.37;78.69;142852.34;1707646;84;21100;-60
2022/02/07 04:38:41;;;;;;;16.95;9.95;;;;;;;2.37;78.69;142852.34;1693760;84;21032;-60
2022/02/07 04:41:09;;;;;;;18.23;9.35;;;;;;;2.38;78.61;142853.58;1681099;84;21053;-59
2022/02/07 04:43:44;;;;;;;14.80;9.05;;;;;;;2.39;78.69;142857.33;1704053;84;22042;-60
2022/02/07 04:46:31;;;;;;;18.52;9.75;;;;;;;2.39;78.64;142857.33;1706636;84;21053;-60
2022/02/07 04:51:46;;;;;;;14.33;8.60;;;;;;;2.41;78.79;142861.05;1705422;84;21017;-61
2022/02/07 04:54:14;;;;;;;17.57;9.35;;;;;;;2.41;78.76;142859.81;1688151;84;21112;-62
2022/02/07 04:59:25;;;;;;;13.88;8.68;;;;;;;2.39;79.29;142856.05;1699907;84;21054;-60
2022/02/07 05:01:56;;;;;;;20.62;9.80;;;;;;;2.39;79.48;142857.33;1703250;84;21060;-62
2022/02/07 05:04:30;;;;;;;;;;;;;;;2.43;79.65;142864.80;1707934;84;21080;-63
2022/02/07 05:15:13;;;;;;;15.75;9.20;;;;;;;2.17;84.13;142802.53;1701953;84;21519;-62
2022/02/07 05:17:41;;;;;;;16.25;8.90;;;;;;;2.10;85.29;142786.31;1679060;84;21040;-62
2022/02/07 05:20:19;;;;;;;16.75;7.92;;;;;;;1.94;87.15;142746.50;1658677;84;21064;-63
2022/02/07 05:23:03;;;;;;;14.47;8.08;;;;;;;1.84;88.32;142721.59;1671340;85;21076;-62
2022/02/07 05:25:40;;;;;;;14.38;8.85;;;;;;;1.80;89.77;142712.84;1680094;85;21076;-62
2022/02/07 05:28:26;;;;;;;13.32;7.70;;;;;;;1.81;90.58;142715.38;1673582;85;21025;-62
2022/02/07 05:31:13;;;;;;;14.15;8.55;;;;;;;1.82;91.44;142717.84;1695215;85;21503;-60
2022/02/07 05:33:42;;;;;;;15.35;7.70;;;;;;;1.83;92.71;142720.36;1691948;85;21550;-60
2022/02/07 05:36:29;;;;;;;12.60;7.62;;;;;;;1.87;92.84;142730.28;1695231;85;21053;-61
2022/02/07 05:39:01;;;;;;;;;;;;;;;1.93;94.13;142745.25;1696453;85;21077;-61
2022/02/07 05:41:33;;;;;;;12.18;7.37;;;;;;;1.91;95.20;142740.27;1695516;85;20151;-62
2022/02/07 05:44:14;;;;;;;16.30;8.95;;;;;;;1.88;95.61;142732.81;1652205;85;21072;-61
2022/02/07 05:47:00;;;;;;;17.80;9.30;;;;;;;1.92;96.18;142741.50;1667604;86;21025;-63
2022/02/07 05:49:44;;;;;;;14.35;8.03;;;;;;;1.97;96.76;142752.72;1669204;85;21061;-61
2022/02/07 05:52:29;;;;;;;16.10;9.33;;;;;;;2.00;97.29;142760.19;1667674;85;21037;-63
2022/02/07 05:55:05;;;;;;;17.75;10.25;;;;;;;2.03;97.75;142768.88;1642916;85;21571;-61
2022/02/07 05:57:34;;;;;;;21.10;10.80;;;;;;;2.04;98.15;142770.16;1693876;85;21088;-61
2022/02/07 06:00:09;;;;;;;18.35;10.35;;;;;;;2.02;98.53;142766.41;1694065;85;21116;-61
2022/02/07 06:02:41;;;;;;;17.87;9.88;;;;;;;2.03;98.84;142767.64;1694442;84;21492;-61
2022/02/07 06:05:19;;;;;;;17.75;9.48;;;;;;;2.04;99.25;142771.39;1687574;84;21044;-63
2022/02/07 06:07:45;;;;;;;18.60;9.93;;;;;;;2.07;99.52;142777.63;1694696;84;21084;-62
2022/02/07 06:10:14;;;;;;;20.80;10.78;;;;;;;2.11;99.71;142787.55;1694407;84;21009;-61
2022/02/07 06:12:45;;;;;;;20.52;11.95;;;;;;;2.15;99.92;142797.53;1692433;84;21017;-61
2022/02/07 06:15:12;;;;;;;19.95;11.30;;;;;;;2.19;100.00;142807.52;1703825;83;21051;-61
2022/02/07 06:17:43;;;;;;;18.02;10.65;;;;;;;2.19;100.00;142807.52;1689752;84;21028;-62
2022/02/07 06:20:11;;;;;;;19.85;11.20;;;;;;;2.21;100.00;142811.22;1667427;86;21061;-62
2022/02/07 06:22:39;;;;;;;20.48;10.82;;;;;;;2.23;100.00;142817.45;1669626;85;21053;-63
2022/02/07 06:25:08;;;;;;;19.48;10.80;;;;;;;2.27;100.00;142826.19;1691275;85;21036;-60
2022/02/07 06:27:35;;;;;;;18.87;9.70;;;;;;;2.29;100.00;142832.42;1689773;85;21097;-61
2022/02/07 06:30:06;;;;;;;24.05;12.53;;;;;;;2.31;100.00;142837.36;1687279;85;21096;-61
2022/02/07 06:32:33;;;;;;;19.40;11.50;;;;;;;2.33;100.00;142842.36;1687702;85;21096;-61
2022/02/07 06:35:01;;;;;;;20.27;11.18;;;;;;;2.38;100.00;142854.81;1709629;84;21028;-61
2022/02/07 06:37:28;;;;;;;24.60;11.55;;;;;;;2.43;100.00;142864.80;1711524;84;21059;-61
2022/02/07 06:39:55;;;;;;;17.05;9.83;;;;;;;2.49;100.00;142879.72;1711927;84;21029;-61
2022/02/07 06:42:22;;;;;;;20.48;11.25;;;;;;;2.55;100.00;142894.70;1701393;84;22382;-61
2022/02/07 06:44:49;;;;;;;21.07;12.45;;;;;;;2.61;99.81;142909.63;1686319;84;21056;-61
2022/02/07 06:47:16;;;;;;;26.27;15.23;;;;;;;2.69;99.61;142929.56;1683550;84;21574;-61
2022/02/07 06:49:43;;;;;;;29.40;15.65;;;;;;;2.75;99.11;142944.53;1683053;84;21084;-61
2022/02/07 06:52:10;;;;;;;28.67;15.80;;;;;;;2.78;98.82;142952.00;1682989;85;21659;-61
2022/02/07 06:54:37;;;;;;;31.42;18.60;;;;;;;2.81;98.64;142959.47;1684806;84;21162;-61
2022/02/07 06:57:05;;;;;;;29.80;16.12;;;;;;;2.87;98.38;142971.94;1684967;84;21528;-61
2022/02/07 06:59:39;;;;;;;26.37;15.03;;;;;;;2.96;98.20;142994.38;1685145;84;21139;-61
2022/02/07 07:02:04;;;;;;;24.30;13.00;;;;;;;3.01;97.60;143006.84;1682890;84;21212;-61
2022/02/07 07:04:34;;;;;;;20.05;11.83;;;;;;;3.04;96.78;143015.55;1683146;84;21621;-62
2022/02/07 07:07:03;;;;;;;17.87;10.50;;;;;;;3.02;96.28;143009.31;1683095;85;21079;-61
2022/02/07 07:09:32;;;;;;;16.15;9.45;;;;;;;3.00;96.14;143005.59;1707321;84;21103;-61
2022/02/07 07:12:08;;;;;;;14.50;8.33;;;;;;;2.98;96.27;142999.38;1711549;84;21345;-61
2022/02/07 07:14:42;;;;;;;18.55;9.15;;;;;;;2.97;96.20;142996.84;1665378;85;21155;-61
2022/02/07 07:17:02;;;;;;;15.80;9.68;;;;;;;2.98;96.18;142999.38;1682493;85;21123;-61
2022/02/07 07:19:31;;;;;;;21.97;12.00;;;;;;;2.94;96.30;142989.38;1682521;84;21127;-61
2022/02/07 07:21:59;;;;;;;24.90;12.45;;;;;;;2.92;96.53;142984.39;1682769;85;21119;-61
2022/02/07 07:24:27;;;;;;;25.23;13.70;;;;;;;2.89;96.65;142976.92;1704093;84;21251;-61
2022/02/07 07:26:54;;;;;;;23.00;12.40;;;;;;;2.88;96.98;142974.45;1708712;82;21066;-61
2022/02/07 07:29:31;;;;;;;20.85;10.82;;;;;;;2.88;97.09;142974.45;1654488;86;21097;-61
2022/02/07 07:31:58;;;;;;;20.10;11.90;;;;;;;2.89;97.06;142976.92;1656571;85;21125;-61
2022/02/07 07:34:25;;;;;;;22.20;12.60;;;;;;;2.90;97.10;142979.41;1675175;84;21728;-61
2022/02/07 07:36:54;;;;;;;22.70;13.58;;;;;;;2.93;97.18;142988.16;1699823;83;21028;-61
2022/02/07 07:39:21;;;;;;;20.95;12.20;;;;;;;2.97;97.18;142996.84;1681157;84;21048;-61
2022/02/07 07:41:51;;;;;;;23.27;12.53;;;;;;;2.98;97.00;142999.38;1700927;83;21040;-61
2022/02/07 07:44:28;;;;;;;23.00;13.88;;;;;;;2.89;97.12;142976.92;1694243;84;21236;-61
2022/02/07 07:46:57;;;;;;;24.00;14.13;;;;;;;2.90;97.49;142979.41;1672557;84;21127;-60
2022/02/07 07:49:37;;;;;;;24.55;13.53;;;;;;;2.94;97.35;142989.38;1673801;84;22305;-62
2022/02/07 07:52:15;;;;;;;25.97;14.28;;;;;;;2.97;97.18;142998.09;1681783;84;21134;-61
2022/02/07 08:02:56;;;;;;;18.77;11.95;;;;;;;3.13;96.43;143035.47;1691111;84;21124;-62
2022/02/07 08:05:42;;;;;;;23.77;11.70;;;;;;;3.22;96.10;143059.17;1675731;84;21209;-61
2022/02/07 08:08:06;;;;;;;23.65;14.58;;;;;;;3.31;95.22;143079.09;1680224;84;21107;-61
2022/02/07 08:10:41;;;;;;;25.25;14.30;;;;;;;3.35;95.01;143090.33;1701092;84;21084;-61
2022/02/07 08:12:56;;;;;;;22.67;13.30;;;;;;;3.35;94.77;143089.09;1683885;84;21061;-61
2022/02/07 08:15:23;;;;;;;25.88;14.05;;;;;;;3.37;94.61;143094.09;1675255;84;21064;-61
2022/02/07 08:17:50;;;;;;;27.45;13.95;;;;;;;3.36;94.42;143091.56;1679151;84;21554;-61
2022/02/07 08:20:17;;;;;;;25.40;14.50;;;;;;;3.32;94.55;143082.86;1679097;84;21100;-60
2022/02/07 08:22:44;;;;;;;23.98;14.28;;;;;;;3.21;94.79;143055.45;1678770;84;21146;-61
2022/02/07 08:25:11;;;;;;;23.12;12.68;;;;;;;3.14;94.90;143039.23;1675075;84;21062;-60
2022/02/07 08:27:38;;;;;;;25.95;12.73;;;;;;;3.11;94.96;143031.77;1674823;84;21131;-60
2022/02/07 08:30:07;;;;;;;19.87;11.90;;;;;;;3.03;95.11;143013.06;1688190;84;21128;-60
2022/02/07 08:32:33;;;;;;;21.75;13.20;;;;;;;3.01;94.78;143006.84;1670676;84;21112;-60
2022/02/07 08:35:01;;;;;;;20.05;11.90;;;;;;;3.00;95.00;143004.31;1670741;84;21639;-60
2022/02/07 08:37:29;;;;;;;18.32;11.40;;;;;;;3.04;94.76;143014.31;1672676;84;21040;-60
2022/02/07 08:39:55;;;;;;;19.02;12.18;;;;;;;3.09;94.63;143025.53;1670941;84;21029;-60
2022/02/07 08:42:22;;;;;;;22.60;10.88;;;;;;;3.00;94.58;143004.31;1657159;85;21101;-60
2022/02/07 08:44:49;;;;;;;21.35;12.18;;;;;;;2.92;94.69;142984.39;1631007;88;21639;-61
2022/02/07 08:47:16;;;;;;;18.50;11.45;;;;;;;2.84;95.03;142965.70;1663187;85;21033;-61
2022/02/07 08:49:44;;;;;;;18.80;11.68;;;;;;;2.90;94.98;142980.69;1672821;85;21136;-60
2022/02/07 08:52:13;;;;;;;20.10;11.60;;;;;;;2.96;94.61;142994.38;1656878;85;21133;-60
2022/02/07 08:54:40;;;;;;;19.87;12.23;;;;;;;2.85;94.40;142968.22;1656400;85;21438;-60
2022/02/07 08:57:13;;;;;;;23.22;12.95;;;;;;;2.86;94.42;142969.45;1661026;84;21084;-60
2022/02/07 08:59:54;;;;;;;24.15;14.05;;;;;;;2.90;94.00;142979.41;1690592;84;21004;-60
2022/02/07 09:05:14;;;;;;;26.57;14.43;;;;;;;3.06;92.28;143019.30;1721142;83;21111;-60
2022/02/07 09:07:31;;;;;;;22.55;11.83;;;;;;;3.10;91.98;143028.00;1725102;83;21163;-59
2022/02/07 09:09:54;;;;;;;22.10;12.37;;;;;;;3.02;90.63;143009.31;1680891;84;21167;-60
2022/02/07 09:12:22;;;;;;;24.15;14.35;;;;;;;3.05;90.83;143016.78;1695078;84;21099;-61
2022/02/07 09:15:05;;;;;;;23.15;13.03;;;;;;;3.13;90.64;143036.75;1698788;84;21091;-61
2022/02/07 09:17:26;;;;;;;22.75;12.70;;;;;;;3.14;89.43;143039.23;1690714;84;21063;-60
2022/02/07 09:19:53;;;;;;;20.88;11.70;;;;;;;3.06;90.12;143019.30;1670119;84;21665;-59
2022/02/07 09:22:20;;;;;;;25.60;12.15;;;;;;;3.10;89.84;143028.00;1670696;84;21131;-60
2022/02/07 09:24:47;;;;;;;18.07;10.60;;;;;;;3.14;89.50;143038.00;1670625;86;21067;-61
2022/02/07 09:27:14;;;;;;;21.45;11.55;;;;;;;3.17;89.06;143046.70;1658308;85;21065;-61
2022/02/07 09:29:41;;;;;;;25.02;12.50;;;;;;;3.22;88.94;143057.94;1656852;85;21156;-60
2022/02/07 09:32:08;;;;;;;22.02;12.70;;;;;;;3.33;88.87;143085.34;1613876;87;21507;-59
2022/02/07 09:34:35;;;;;;;27.77;15.58;;;;;;;3.50;88.52;143126.50;1650116;86;21017;-59
2022/02/07 09:37:02;;;;;;;27.05;13.90;;;;;;;3.63;88.02;143158.91;1614600;87;21066;-61
2022/02/07 09:39:30;;;;;;;26.00;15.03;;;;;;;3.77;87.63;143192.59;1670750;85;21041;-61
2022/02/07 09:42:00;;;;;;;27.80;16.73;;;;;;;3.91;86.35;143227.50;1640141;87;21509;-61
2022/02/07 09:44:29;;;;;;;30.75;16.05;;;;;;;4.01;86.26;143249.97;1657084;86;21049;-60
2022/02/07 09:46:56;;;;;;;36.40;16.80;;;;;;;4.12;85.45;143278.67;1627303;87;21096;-61
2022/02/07 09:49:25;;;;;;;32.20;18.17;;;;;;;4.23;84.72;143303.63;1675970;85;21037;-61
2022/02/07 09:51:53;;;;;;;33.13;17.92;;;;;;;4.30;84.40;143321.05;1664077;85;21187;-59
2022/02/07 09:54:22;;;;;;;25.57;15.70;;;;;;;4.31;83.58;143324.81;1690173;85;21104;-60
2022/02/07 09:56:50;;;;;;;26.93;16.48;;;;;;;4.28;83.39;143316.09;1696784;84;21092;-62
2022/02/07 09:59:21;;;;;;;27.22;15.93;;;;;;;4.25;83.19;143309.86;1698168;84;21139;-61
2022/02/07 10:01:50;;;;;;;27.00;16.52;;;;;;;4.28;83.30;143316.09;1677076;84;21637;-60
2022/02/07 10:04:34;;;;;;;34.33;16.95;;;;;;;4.31;83.05;143323.58;1672777;84;21168;-61
2022/02/07 10:07:13;;;;;;;36.53;18.27;;;;;;;4.33;82.67;143329.81;1680439;84;21166;-61
2022/02/07 10:14:40;;;;;;;33.70;19.80;;;;;;;4.50;81.81;143371.00;1670613;86;21605;-61
2022/02/07 10:22:52;;;;;;;27.60;14.87;;;;;;;4.61;78.90;143395.97;1677515;85;21041;-61
2022/02/07 10:44:45;;;;;;;20.40;12.00;;;;;;;4.31;77.94;143323.58;1671201;84;21104;-61
2022/02/07 10:47:29;;;;;;;20.90;11.50;;;;;;;4.29;78.18;143318.56;1675064;84;21060;-60
2022/02/07 10:50:08;;;;;;;21.17;11.48;;;;;;;4.31;78.36;143323.58;1701281;84;21079;-61
2022/02/07 10:53:00;;;;;;;19.32;11.75;;;;;;;4.33;78.31;143328.58;1676078;84;21051;-60
2022/02/07 10:55:30;;;;;;;22.05;11.70;;;;;;;4.30;78.39;143321.05;1694216;84;21099;-60
2022/02/07 10:58:00;;;;;;;18.27;10.70;;;;;;;4.31;78.39;143324.81;1680130;85;21104;-60
2022/02/07 11:03:20;;;;;;;21.60;11.80;;;;;;;4.39;78.01;143343.53;1689658;85;21112;-61
2022/02/07 11:05:51;;;;;;;22.27;11.65;;;;;;;4.42;77.63;143351.00;1691560;85;21096;-61
2022/02/07 11:16:11;;;;;;;18.55;11.22;;;;;;;4.56;77.16;143385.97;1683504;84;21115;-60
2022/02/07 11:21:35;;;;;;;24.47;11.73;;;;;;;4.59;77.48;143390.97;1677641;84;21132;-61
2022/02/07 11:24:51;;;;;;;23.27;11.78;;;;;;;4.63;77.49;143402.20;1687797;85;21538;-60
2022/02/07 11:27:40;;;;;;;17.87;10.00;;;;;;;4.62;77.65;143398.44;1678143;84;21029;-60
2022/02/07 11:30:14;;;;;;;19.48;10.72;;;;;;;4.51;77.87;143373.48;1696005;84;21147;-61
2022/02/07 11:32:48;;;;;;;14.05;9.38;;;;;;;4.41;78.45;143348.53;1697083;84;21605;-60
2022/02/07 11:35:28;;;;;;;20.70;11.22;;;;;;;4.41;78.54;143348.53;1705578;84;21104;-60
2022/02/07 11:38:13;;;;;;;23.40;11.93;;;;;;;4.39;78.77;143343.53;1688044;84;21167;-60
2022/02/07 11:41:04;;;;;;;19.77;10.28;;;;;;;4.39;78.78;143342.28;1671122;84;21021;-61
2022/02/07 11:43:34;;;;;;;20.52;11.70;;;;;;;4.39;78.57;143343.53;1676550;84;21511;-60
2022/02/07 11:46:12;;;;;;;19.12;11.08;;;;;;;4.39;78.73;143343.53;1670617;84;21097;-61
2022/02/07 11:48:47;;;;;;;17.45;10.10;;;;;;;4.45;78.66;143358.53;1670813;84;21637;-61
2022/02/07 11:51:18;;;;;;;19.85;10.20;;;;;;;4.55;78.50;143383.48;1693707;84;21068;-61
2022/02/07 11:53:53;;;;;;;13.60;9.10;;;;;;;4.52;78.29;143375.95;1681852;85;21137;-60
2022/02/07 11:56:42;;;;;;;19.07;10.72;;;;;;;4.53;78.61;143378.48;1680835;85;21045;-60
2022/02/07 11:59:23;;;;;;;17.45;10.15;;;;;;;4.66;78.61;143408.44;1629946;87;21596;-60
2022/02/07 12:02:03;;;;;;;17.02;10.55;;;;;;;4.71;78.42;143420.92;1640188;87;21152;-59
2022/02/07 12:04:42;;;;;;;18.37;12.20;;;;;;;4.79;78.36;143442.13;1640107;87;21092;-60
2022/02/07 12:07:22;;;;;;;21.97;13.45;;;;;;;4.85;78.27;143455.84;1638394;87;21056;-60
2022/02/07 12:10:15;;;;;;;21.80;14.15;;;;;;;4.96;78.04;143483.33;1661893;86;21104;-61
2022/02/07 12:12:47;;;;;;;22.55;13.03;;;;;;;5.12;77.99;143520.78;1658725;86;21179;-59
2022/02/07 12:15:23;;;;;;;26.37;14.47;;;;;;;5.48;77.05;143609.44;1657136;85;21155;-61
2022/02/07 12:17:57;;;;;;;29.85;17.57;;;;;;;5.86;76.37;143701.88;1663713;85;21175;-60
2022/02/07 12:20:31;;;;;;;34.63;20.35;;;;;;;6.23;75.15;143793.16;1665173;85;21084;-61
2022/02/07 12:23:09;;;;;;;32.23;17.27;;;;;;;6.51;74.11;143861.91;1670505;84;21143;-62
2022/02/07 12:25:47;;;;;;;27.65;16.42;;;;;;;6.73;72.85;143915.63;1672963;84;21056;-60
2022/02/07 12:28:28;;;;;;;31.20;16.65;;;;;;;6.79;72.33;143928.13;1670310;84;21532;-61
2022/02/07 12:31:00;;;;;;;22.95;13.80;;;;;;;6.82;72.07;143935.63;1671395;84;21025;-61
2022/02/07 12:33:17;;;;;;;28.27;14.10;;;;;;;6.80;71.64;143930.66;1670702;84;21064;-60
2022/02/07 12:35:47;;;;;;;29.15;15.20;;;;;;;6.81;71.78;143933.14;1671895;84;21072;-61
2022/02/07 12:38:14;;;;;;;22.30;13.48;;;;;;;6.89;71.53;143953.14;1681494;85;21089;-61
2022/02/07 12:40:43;;;;;;;25.55;14.18;;;;;;;6.85;70.89;143943.16;1639794;87;21130;-61
2022/02/07 12:43:11;;;;;;;24.75;14.03;;;;;;;6.80;71.12;143931.91;1612682;87;21113;-62
2022/02/07 12:45:42;;;;;;;25.72;14.53;;;;;;;6.85;70.95;143943.16;1612659;88;21171;-61
2022/02/07 12:48:15;;;;;;;24.80;13.85;;;;;;;6.78;70.87;143925.66;1612930;87;21080;-61
2022/02/07 12:50:52;;;;;;;26.87;14.80;;;;;;;6.84;71.06;143940.63;1614414;87;21597;-61
2022/02/07 12:53:25;;;;;;;19.95;12.05;;;;;;;6.93;70.81;143964.41;1612880;87;21607;-60
2022/02/07 12:55:57;;;;;;;23.00;13.55;;;;;;;7.00;70.69;143980.67;1612763;87;21036;-60
2022/02/07 12:58:36;;;;;;;24.23;14.30;;;;;;;7.10;70.74;144004.45;1624553;87;21168;-61
2022/02/07 13:01:39;;;;;;;25.68;14.78;;;;;;;7.21;70.61;144031.94;1660416;85;21089;-60
2022/02/07 13:04:10;;;;;;;25.23;14.13;;;;;;;7.31;69.87;144056.95;1663714;86;21016;-61
2022/02/07 13:06:51;;;;;;;22.67;13.45;;;;;;;7.34;70.08;144063.22;1665727;85;21112;-61
2022/02/07 13:09:33;;;;;;;18.52;11.75;;;;;;;7.42;69.84;144083.22;1672637;84;21613;-60
2022/02/07 13:12:14;;;;;;;21.87;13.00;;;;;;;7.47;69.70;144095.72;1689981;84;21073;-60
2022/02/07 13:14:52;;;;;;;26.20;13.70;;;;;;;7.51;69.44;144104.52;1696392;83;21116;-61
2022/02/07 13:17:24;;;;;;;21.45;12.60;;;;;;;7.56;69.50;144117.03;1677165;85;21524;-61
2022/02/07 13:19:53;;;;;;;15.98;9.75;;;;;;;7.61;68.85;144130.78;1669812;85;21108;-61
2022/02/07 13:22:23;;;;;;;17.73;10.38;;;;;;;7.61;69.01;144130.78;1632408;87;21091;-61
2022/02/07 13:24:51;;;;;;;18.65;11.48;;;;;;;7.65;68.91;144138.28;1614779;87;21102;-61
2022/02/07 13:27:19;;;;;;;17.73;10.68;;;;;;;7.67;68.87;144144.53;1613307;87;21148;-61
2022/02/07 13:29:51;;;;;;;19.80;10.48;;;;;;;7.71;68.75;144153.27;1662839;83;21130;-60
2022/02/07 13:32:23;;;;;;;20.57;10.43;;;;;;;7.70;68.57;144152.03;1683187;85;21037;-60
2022/02/07 13:34:53;;;;;;;18.07;10.30;;;;;;;7.66;68.68;144140.75;1637263;87;21164;-61
2022/02/07 13:37:30;;;;;;;22.27;11.80;;;;;;;7.60;68.92;144128.25;1671517;85;21120;-61
2022/02/07 13:40:15;;;;;;;20.17;11.57;;;;;;;7.54;68.89;144112.00;1614195;87;21073;-60
2022/02/07 13:42:48;;;;;;;20.02;11.88;;;;;;;7.42;69.00;144081.97;1667511;85;21069;-61
2022/02/07 13:45:24;;;;;;;21.37;12.20;;;;;;;7.28;69.36;144048.22;1614970;87;21080;-60
2022/02/07 13:47:58;;;;;;;20.75;12.60;;;;;;;7.19;69.68;144026.94;1668934;85;21152;-61
2022/02/07 13:50:31;;;;;;;21.15;12.85;;;;;;;7.04;70.05;143990.66;1691392;85;21045;-60
2022/02/07 13:53:03;;;;;;;20.25;11.80;;;;;;;6.90;70.49;143955.67;1675960;84;21636;-60